createdAt,value
2019-06-20T00:00:37.686Z,80.57
2019-06-20T00:03:09.293Z,80.98
2019-06-20T00:05:40.950Z,81.82
2019-06-20T00:08:13.266Z,82.40
2019-06-20T00:10:44.924Z,82.89
2019-06-20T00:13:16.497Z,82.78
2019-06-20T00:15:48.064Z,82.76
2019-06-20T00:18:19.648Z,82.30
2019-06-20T00:20:51.233Z,82.73
2019-06-20T00:23:22.799Z,82.04
2019-06-20T00:25:54.373Z,82.91
2019-06-20T00:28:25.950Z,82.94
2019-06-20T00:30:57.531Z,83.03
2019-06-20T00:33:29.078Z,83.26
2019-06-20T00:36:00.717Z,83.51
2019-06-20T00:38:33.250Z,83.53
2019-06-20T00:41:04.842Z,84.20
2019-06-20T00:43:36.397Z,83.95
2019-06-20T00:46:07.979Z,83.79
2019-06-20T00:48:39.525Z,83.23
2019-06-20T00:51:11.110Z,83.88
2019-06-20T00:53:42.677Z,84.01
2019-06-20T00:56:15.337Z,83.92
2019-06-20T00:58:48.002Z,84.20
2019-06-20T01:01:19.591Z,84.56
2019-06-20T01:03:51.163Z,84.63
2019-06-20T01:06:22.764Z,84.40
2019-06-20T01:08:54.315Z,83.80
2019-06-20T01:11:25.900Z,84.20
2019-06-20T01:13:57.509Z,84.18
2019-06-20T01:16:29.078Z,84.22
2019-06-20T01:19:00.687Z,84.01
2019-06-20T01:21:32.285Z,83.51
2019-06-20T01:24:03.857Z,83.23
2019-06-20T01:26:35.436Z,83.36
2019-06-20T01:29:06.988Z,82.76
2019-06-20T01:31:38.578Z,82.69
2019-06-20T01:34:10.175Z,83.17
2019-06-20T01:36:41.738Z,83.61
2019-06-20T01:39:13.410Z,83.77
2019-06-20T01:41:44.985Z,83.87
2019-06-20T01:44:16.591Z,84.45
2019-06-20T01:46:48.149Z,84.72
2019-06-20T01:49:19.849Z,84.89
2019-06-20T01:51:51.414Z,84.62
2019-06-20T01:54:22.957Z,84.25
2019-06-20T01:56:54.562Z,83.99
2019-06-20T01:59:26.138Z,84.78
2019-06-20T02:01:57.716Z,84.95
2019-06-20T02:04:29.279Z,84.41
2019-06-20T02:07:00.907Z,84.51
2019-06-20T02:09:32.476Z,84.64
2019-06-20T02:12:04.045Z,84.22
2019-06-20T02:14:35.598Z,84.46
2019-06-20T02:17:07.263Z,84.65
2019-06-20T02:19:38.878Z,84.21
2019-06-20T02:22:10.468Z,84.23
2019-06-20T02:24:42.029Z,84.61
2019-06-20T02:27:13.589Z,84.90
2019-06-20T02:29:45.171Z,85.07
2019-06-20T02:32:16.760Z,85.09
2019-06-20T02:34:48.314Z,84.89
2019-06-20T02:37:19.916Z,84.68
2019-06-20T02:39:51.496Z,84.04
2019-06-20T02:42:23.049Z,84.54
2019-06-20T02:44:54.605Z,84.63
2019-06-20T02:47:27.257Z,84.56
2019-06-20T02:49:58.820Z,84.58
2019-06-20T02:52:30.780Z,84.63
2019-06-20T02:55:02.366Z,84.88
2019-06-20T02:57:33.920Z,85.00
2019-06-20T03:00:06.299Z,84.52
2019-06-20T03:02:38.044Z,85.01
2019-06-20T03:05:11.111Z,84.94
2019-06-20T03:07:42.680Z,85.14
2019-06-20T03:10:14.388Z,84.87
2019-06-20T03:12:45.984Z,84.40
2019-06-20T03:15:17.530Z,84.20
2019-06-20T03:17:49.087Z,84.23
2019-06-20T03:20:20.673Z,84.67
2019-06-20T03:22:52.254Z,84.90
2019-06-20T03:25:24.197Z,84.99
2019-06-20T03:27:55.768Z,84.75
2019-06-20T03:30:27.449Z,84.46
2019-06-20T03:32:59.023Z,84.65
2019-06-20T03:35:30.589Z,84.71
2019-06-20T03:38:02.129Z,84.54
2019-06-20T03:40:33.718Z,84.13
2019-06-20T03:43:05.288Z,84.48
2019-06-20T03:45:37.116Z,84.79
2019-06-20T03:48:08.678Z,84.90
2019-06-20T03:50:40.217Z,84.86
2019-06-20T03:53:11.790Z,84.42
2019-06-20T03:55:43.357Z,84.51
2019-06-20T03:58:14.939Z,83.66
2019-06-20T04:00:46.535Z,83.98
2019-06-20T04:03:18.060Z,84.45
2019-06-20T04:05:49.630Z,84.53
2019-06-20T04:08:21.168Z,84.34
2019-06-20T04:10:52.747Z,84.52
2019-06-20T04:13:24.322Z,84.52
2019-06-20T04:15:55.920Z,84.41
2019-06-20T04:18:27.721Z,84.09
2019-06-20T04:20:59.312Z,84.79
2019-06-20T04:23:30.872Z,85.05
2019-06-20T04:26:02.437Z,85.16
2019-06-20T04:28:34.005Z,85.30
2019-06-20T04:31:05.610Z,85.49
2019-06-20T04:33:37.178Z,85.62
2019-06-20T04:36:08.751Z,85.37
2019-06-20T04:38:40.314Z,85.53
2019-06-20T04:41:11.877Z,85.03
2019-06-20T04:43:43.455Z,84.34
2019-06-20T04:46:26.538Z,84.10
2019-06-20T04:48:58.114Z,83.28
2019-06-20T04:51:29.856Z,83.41
2019-06-20T04:54:01.421Z,83.25
2019-06-20T04:56:32.978Z,83.16
2019-06-20T04:59:04.561Z,83.00
2019-06-20T05:01:37.172Z,82.88
2019-06-20T05:04:08.747Z,82.78
2019-06-20T05:06:41.064Z,83.27
2019-06-20T05:09:12.640Z,83.63
2019-06-20T05:11:44.264Z,83.17
2019-06-20T05:14:15.913Z,83.28
2019-06-20T05:16:47.477Z,83.55
2019-06-20T05:19:19.093Z,84.09
2019-06-20T05:21:50.642Z,84.33
2019-06-20T05:24:25.499Z,85.14
2019-06-20T05:26:55.486Z,85.64
2019-06-20T05:29:27.076Z,86.58
2019-06-20T05:31:58.657Z,86.18
2019-06-20T05:34:30.267Z,86.43
2019-06-20T05:37:01.827Z,86.33
2019-06-20T05:39:33.420Z,86.80
2019-06-20T05:42:05.031Z,86.70
2019-06-20T05:44:36.602Z,86.31
2019-06-20T05:47:12.626Z,86.16
2019-06-20T05:49:41.480Z,85.57
2019-06-20T05:52:13.042Z,85.84
2019-06-20T05:54:44.623Z,85.54
2019-06-20T05:57:16.216Z,85.49
2019-06-20T05:59:47.770Z,86.16
2019-06-20T06:02:19.352Z,86.50
2019-06-20T06:04:50.943Z,86.39
2019-06-20T06:07:23.070Z,86.16
2019-06-20T06:09:56.003Z,85.38
2019-06-20T06:12:27.546Z,84.96
2019-06-20T06:15:00.971Z,84.45
2019-06-20T06:17:32.484Z,85.11
2019-06-20T06:20:04.377Z,84.80
2019-06-20T06:22:35.982Z,84.88
2019-06-20T06:25:08.177Z,85.53
2019-06-20T06:27:39.748Z,85.76
2019-06-20T06:30:13.395Z,85.04
2019-06-20T06:32:44.984Z,85.14
2019-06-20T06:35:18.679Z,85.64
2019-06-20T06:37:50.297Z,85.51
2019-06-20T06:40:22.309Z,83.59
2019-06-20T06:42:53.958Z,81.32
2019-06-20T06:45:25.729Z,79.52
2019-06-20T06:47:57.332Z,78.35
2019-06-20T06:50:29.444Z,76.44
2019-06-20T06:53:01.002Z,74.50
2019-06-20T06:55:32.635Z,76.65
2019-06-20T06:58:04.162Z,77.88
2019-06-20T07:00:35.760Z,76.47
2019-06-20T07:03:07.360Z,75.58
2019-06-20T07:05:38.992Z,74.85
2019-06-20T07:08:11.790Z,74.58
2019-06-20T07:10:43.416Z,74.88
2019-06-20T07:13:15.192Z,75.48
2019-06-20T07:15:47.088Z,74.32
2019-06-20T07:18:18.842Z,74.05
2019-06-20T07:20:50.418Z,73.76
2019-06-20T07:23:22.004Z,71.39
2019-06-20T07:25:53.584Z,71.44
2019-06-20T07:28:25.161Z,70.17
2019-06-20T07:30:57.750Z,69.29
2019-06-20T07:33:29.331Z,69.32
2019-06-20T07:36:00.946Z,70.79
2019-06-20T07:38:32.518Z,68.81
2019-06-20T07:41:04.125Z,69.71
2019-06-20T07:43:35.880Z,67.27
2019-06-20T07:46:07.603Z,69.02
2019-06-20T07:48:39.180Z,68.86
2019-06-20T07:51:10.809Z,68.30
2019-06-20T07:53:42.481Z,63.79
2019-06-20T07:56:14.106Z,67.82
2019-06-20T07:58:45.717Z,67.63
2019-06-20T08:01:17.313Z,65.94
2019-06-20T08:03:50.098Z,67.20
2019-06-20T08:06:21.680Z,68.65
2019-06-20T08:08:53.454Z,64.39
2019-06-20T08:11:24.986Z,66.22
2019-06-20T08:13:58.538Z,65.94
2019-06-20T08:16:31.536Z,66.39
2019-06-20T08:19:03.608Z,66.25
2019-06-20T08:21:36.886Z,65.22
2019-06-20T08:24:08.456Z,63.82
2019-06-20T08:26:40.090Z,62.64
2019-06-20T08:29:20.885Z,65.12
2019-06-20T08:31:45.018Z,61.77
2019-06-20T08:34:16.795Z,62.88
2019-06-20T08:36:49.437Z,64.89
2019-06-20T08:39:21.091Z,63.56
2019-06-20T08:41:52.670Z,62.73
2019-06-20T08:44:24.337Z,59.89
2019-06-20T08:46:58.330Z,59.20
2019-06-20T08:49:30.472Z,58.09
2019-06-20T08:52:03.415Z,60.54
2019-06-20T08:54:35.105Z,61.33
2019-06-20T08:57:06.705Z,59.32
2019-06-20T08:59:38.310Z,61.16
2019-06-20T09:02:10.592Z,60.02
2019-06-20T09:04:42.233Z,58.30
2019-06-20T09:07:13.836Z,59.50
2019-06-20T09:09:45.456Z,60.30
2019-06-20T09:12:17.102Z,60.75
2019-06-20T09:14:48.715Z,61.09
2019-06-20T09:17:20.316Z,57.11
2019-06-20T09:19:52.888Z,60.06
2019-06-20T09:22:25.003Z,59.45
2019-06-20T09:24:56.852Z,58.47
2019-06-20T09:27:28.488Z,58.59
2019-06-20T09:30:00.525Z,58.43
2019-06-20T09:32:32.238Z,56.23
2019-06-20T09:35:03.984Z,58.07
2019-06-20T09:37:35.940Z,57.88
2019-06-20T09:40:08.627Z,56.10
2019-06-20T09:42:40.331Z,58.07
2019-06-20T09:45:14.796Z,57.05
2019-06-20T09:47:47.892Z,58.11
2019-06-20T09:50:19.723Z,55.15
2019-06-20T09:52:51.592Z,59.16
2019-06-20T09:55:24.595Z,59.83
2019-06-20T09:57:56.321Z,57.55
2019-06-20T10:00:29.875Z,59.35
2019-06-20T10:03:01.509Z,59.66
2019-06-20T10:05:36.426Z,59.63
2019-06-20T10:08:08.233Z,57.91
2019-06-20T10:10:39.923Z,58.21
2019-06-20T10:13:11.536Z,58.83
2019-06-20T10:15:43.422Z,58.06
2019-06-20T10:18:15.059Z,56.58
2019-06-20T10:20:47.250Z,58.93
2019-06-20T10:23:18.911Z,56.15
2019-06-20T10:25:51.531Z,57.20
2019-06-20T10:28:23.392Z,58.20
2019-06-20T10:30:57.781Z,56.78
2019-06-20T10:33:29.513Z,53.90
2019-06-20T10:36:01.107Z,57.28
2019-06-20T10:38:32.708Z,57.24
2019-06-20T10:41:04.569Z,56.09
2019-06-20T10:43:36.409Z,54.73
2019-06-20T10:46:08.011Z,54.62
2019-06-20T10:48:39.630Z,55.79
2019-06-20T10:51:28.857Z,54.04
2019-06-20T10:54:00.484Z,56.20
2019-06-20T10:56:32.067Z,56.35
2019-06-20T10:59:03.653Z,55.07
2019-06-20T11:01:35.268Z,54.10
2019-06-20T11:04:07.355Z,55.79
2019-06-20T11:06:40.100Z,57.21
2019-06-20T11:09:13.441Z,58.05
2019-06-20T11:11:45.067Z,57.10
2019-06-20T11:14:16.777Z,56.35
2019-06-20T11:16:49.314Z,58.62
2019-06-20T11:19:20.996Z,60.03
2019-06-20T11:21:52.582Z,61.66
2019-06-20T11:24:24.369Z,65.19
2019-06-20T11:26:55.997Z,64.86
2019-06-20T11:29:28.253Z,65.53
2019-06-20T11:32:00.070Z,67.35
2019-06-20T11:34:31.662Z,66.86
2019-06-20T11:37:03.276Z,67.91
2019-06-20T11:39:36.221Z,69.14
2019-06-20T11:42:08.135Z,68.53
2019-06-20T11:44:40.872Z,70.51
2019-06-20T11:47:12.572Z,70.44
2019-06-20T11:49:44.290Z,71.60
2019-06-20T11:52:16.002Z,72.94
2019-06-20T11:54:47.648Z,75.41
2019-06-20T11:57:19.268Z,75.80
2019-06-20T11:59:50.944Z,76.20
2019-06-20T12:02:22.552Z,77.16
2019-06-20T12:04:54.167Z,76.68
2019-06-20T12:07:25.967Z,75.94
2019-06-20T12:09:57.544Z,76.39
2019-06-20T12:12:29.165Z,78.98
2019-06-20T12:15:00.738Z,77.88
2019-06-20T12:17:32.364Z,80.06
2019-06-20T12:20:04.142Z,82.41
2019-06-20T12:22:35.717Z,81.83
2019-06-20T12:25:08.346Z,81.42
2019-06-20T12:27:40.796Z,80.22
2019-06-20T12:30:13.885Z,81.00
2019-06-20T12:32:46.800Z,82.01
2019-06-20T12:35:18.952Z,81.42
2019-06-20T12:37:52.136Z,81.42
2019-06-20T12:40:24.108Z,78.90
2019-06-20T12:42:56.770Z,81.95
2019-06-20T12:45:28.507Z,79.22
2019-06-20T12:48:01.558Z,80.45
2019-06-20T12:50:33.188Z,80.11
2019-06-20T12:53:04.906Z,80.46
2019-06-20T12:55:37.260Z,80.91
2019-06-20T12:58:09.822Z,79.77
2019-06-20T13:00:42.989Z,79.81
2019-06-20T13:03:14.752Z,77.80
2019-06-20T13:05:47.136Z,78.86
2019-06-20T13:08:22.362Z,77.91
2019-06-20T13:10:55.489Z,77.25
2019-06-20T13:13:28.437Z,78.52
2019-06-20T13:16:00.400Z,79.60
2019-06-20T13:18:32.526Z,76.48
2019-06-20T13:21:05.918Z,77.31
2019-06-20T13:23:39.732Z,75.53
2019-06-20T13:26:13.431Z,74.77
2019-06-20T13:29:01.637Z,75.08
2019-06-20T13:31:20.455Z,73.95
2019-06-20T13:33:52.455Z,75.07
2019-06-20T13:36:25.806Z,75.06
2019-06-20T13:39:03.947Z,75.47
2019-06-20T13:41:40.784Z,75.53
2019-06-20T13:44:14.934Z,76.67
2019-06-20T13:46:48.990Z,75.08
2019-06-20T13:49:23.669Z,77.63
2019-06-20T13:51:55.845Z,79.20
2019-06-20T13:54:27.861Z,79.53
2019-06-20T13:56:59.770Z,80.45
2019-06-20T13:59:31.709Z,80.62
2019-06-20T14:02:06.915Z,80.79
2019-06-20T14:04:37.354Z,82.34
2019-06-20T14:07:10.067Z,82.17
2019-06-20T14:09:44.648Z,82.27
2019-06-20T14:12:18.175Z,82.01
2019-06-20T14:14:52.121Z,81.99
2019-06-20T14:17:24.272Z,79.75
2019-06-20T14:19:56.629Z,79.98
2019-06-20T14:22:28.543Z,79.39
2019-06-20T14:25:00.560Z,79.76
2019-06-20T14:27:35.028Z,79.58
2019-06-20T14:30:07.396Z,79.61
2019-06-20T14:32:39.557Z,79.14
2019-06-20T14:35:13.107Z,79.37
2019-06-20T14:37:47.305Z,79.88
2019-06-20T14:40:20.093Z,77.75
2019-06-20T14:42:54.364Z,78.50
2019-06-20T14:45:27.789Z,78.28
2019-06-20T14:47:59.401Z,78.37
2019-06-20T14:50:30.996Z,75.61
2019-06-20T14:53:02.618Z,76.86
2019-06-20T14:55:34.195Z,77.18
2019-06-20T14:58:05.854Z,77.42
2019-06-20T15:00:37.443Z,78.02
2019-06-20T15:03:09.042Z,78.46
2019-06-20T15:05:41.706Z,78.50
2019-06-20T15:08:13.298Z,78.20
2019-06-20T15:10:46.518Z,80.35
2019-06-20T15:13:18.214Z,80.76
2019-06-20T15:15:51.024Z,79.94
2019-06-20T15:18:22.810Z,77.84
2019-06-20T15:20:57.818Z,78.27
2019-06-20T15:23:27.692Z,78.69
2019-06-20T15:25:59.483Z,77.62
2019-06-20T15:28:31.074Z,78.75
2019-06-20T15:31:02.704Z,79.01
2019-06-20T15:33:34.275Z,78.46
2019-06-20T15:36:05.893Z,78.47
2019-06-20T15:38:38.575Z,79.69
2019-06-20T15:41:12.443Z,79.62
2019-06-20T15:43:43.686Z,79.22
2019-06-20T15:46:15.304Z,79.38
2019-06-20T15:48:46.948Z,78.85
2019-06-20T15:51:18.630Z,78.74
2019-06-20T15:53:51.901Z,77.54
2019-06-20T15:56:23.483Z,77.37
2019-06-20T15:58:55.366Z,74.98
2019-06-20T16:01:27.085Z,73.16
2019-06-20T16:03:58.678Z,71.87
2019-06-20T16:06:30.389Z,71.76
2019-06-20T16:09:01.971Z,70.43
2019-06-20T16:11:35.202Z,70.86
2019-06-20T16:14:07.354Z,72.34
2019-06-20T16:16:38.920Z,73.89
2019-06-20T16:19:10.511Z,73.49
2019-06-20T16:21:42.117Z,74.37
2019-06-20T16:24:13.696Z,74.21
2019-06-20T16:26:45.352Z,74.06
2019-06-20T16:29:16.931Z,74.19
2019-06-20T16:31:48.531Z,75.81
2019-06-20T16:34:20.299Z,76.31
2019-06-20T16:36:51.923Z,75.96
2019-06-20T16:39:23.665Z,73.39
2019-06-20T16:41:55.253Z,73.83
2019-06-20T16:44:26.836Z,73.41
2019-06-20T16:46:58.469Z,72.93
2019-06-20T16:49:30.104Z,71.40
2019-06-20T16:52:01.705Z,71.66
2019-06-20T16:54:33.389Z,72.74
2019-06-20T16:57:05.145Z,72.69
2019-06-20T16:59:36.842Z,72.00
2019-06-20T17:02:08.469Z,71.08
2019-06-20T17:04:40.313Z,71.50
2019-06-20T17:07:12.066Z,71.09
2019-06-20T17:09:43.677Z,71.55
2019-06-20T17:12:15.334Z,71.32
2019-06-20T17:14:46.933Z,71.67
2019-06-20T17:17:18.548Z,72.96
2019-06-20T17:19:50.145Z,72.24
2019-06-20T17:22:21.990Z,72.96
2019-06-20T17:24:53.644Z,73.25
2019-06-20T17:27:25.533Z,73.72
2019-06-20T17:29:57.281Z,74.67
2019-06-20T17:32:29.943Z,74.18
2019-06-20T17:35:01.558Z,73.94
2019-06-20T17:37:33.321Z,74.33
2019-06-20T17:40:06.308Z,75.12
2019-06-20T17:42:37.955Z,75.49
2019-06-20T17:45:11.698Z,76.18
2019-06-20T17:47:43.313Z,76.80
2019-06-20T17:50:16.107Z,76.18
2019-06-20T17:52:47.693Z,75.92
2019-06-20T17:55:20.405Z,75.36
2019-06-20T17:57:51.962Z,74.60
2019-06-20T18:00:25.868Z,74.08
2019-06-20T18:02:57.567Z,74.37
2019-06-20T18:05:39.278Z,74.43
2019-06-20T18:08:15.153Z,75.17
2019-06-20T18:10:44.377Z,75.83
2019-06-20T18:13:16.067Z,77.58
2019-06-20T18:15:47.744Z,78.68
2019-06-20T18:18:19.379Z,78.78
2019-06-20T18:20:51.116Z,79.15
2019-06-20T18:23:22.819Z,77.60
2019-06-20T18:25:54.455Z,75.72
2019-06-20T18:28:26.184Z,75.10
2019-06-20T18:30:57.807Z,74.64
2019-06-20T18:33:29.417Z,75.03
2019-06-20T18:36:01.024Z,76.27
2019-06-20T18:38:32.640Z,77.54
2019-06-20T18:41:04.246Z,77.44
2019-06-20T18:43:36.082Z,77.15
2019-06-20T18:46:07.695Z,76.30
2019-06-20T18:48:39.581Z,77.02
2019-06-20T18:51:11.166Z,77.17
2019-06-20T18:53:42.826Z,76.76
2019-06-20T18:56:14.430Z,77.10
2019-06-20T18:58:46.032Z,76.87
2019-06-20T19:01:17.609Z,77.22
2019-06-20T19:03:49.229Z,77.69
2019-06-20T19:06:35.077Z,77.94
2019-06-20T19:08:54.657Z,78.47
2019-06-20T19:11:26.345Z,78.83
2019-06-20T19:13:57.922Z,79.08
2019-06-20T19:16:29.497Z,79.24
2019-06-20T19:19:01.123Z,79.97
2019-06-20T19:21:32.709Z,80.00
2019-06-20T19:24:04.752Z,79.85
2019-06-20T19:26:37.298Z,79.46
2019-06-20T19:29:08.887Z,80.40
2019-06-20T19:31:40.546Z,79.76
2019-06-20T19:34:12.245Z,80.04
2019-06-20T19:36:43.829Z,80.61
2019-06-20T19:39:15.494Z,80.41
2019-06-20T19:41:47.128Z,80.96
2019-06-20T19:44:18.735Z,81.31
2019-06-20T19:46:50.427Z,81.63
2019-06-20T19:49:22.093Z,81.82
2019-06-20T19:51:53.688Z,82.39
2019-06-20T19:54:25.339Z,83.03
2019-06-20T19:56:57.001Z,81.88
2019-06-20T19:59:28.744Z,81.58
2019-06-20T20:02:00.469Z,81.35
2019-06-20T20:04:32.103Z,81.52
2019-06-20T20:07:03.692Z,81.36
2019-06-20T20:09:35.551Z,81.38
2019-06-20T20:12:07.166Z,81.96
2019-06-20T20:14:38.851Z,81.85
2019-06-20T20:17:10.481Z,81.94
2019-06-20T20:19:42.112Z,82.30
2019-06-20T20:22:13.926Z,82.14
2019-06-20T20:24:47.173Z,82.07
2019-06-20T20:27:18.784Z,80.88
2019-06-20T20:29:50.395Z,80.63
2019-06-20T20:32:22.038Z,80.61
2019-06-20T20:34:53.678Z,80.58
2019-06-20T20:37:25.279Z,81.12
2019-06-20T20:39:56.876Z,80.98
2019-06-20T20:42:28.465Z,81.12
2019-06-20T20:45:00.066Z,81.22
2019-06-20T20:47:31.663Z,81.87
2019-06-20T20:50:03.267Z,82.23
2019-06-20T20:52:35.972Z,82.59
2019-06-20T20:55:08.882Z,82.09
2019-06-20T20:57:40.542Z,81.73
2019-06-20T21:00:17.002Z,81.84
2019-06-20T21:02:48.629Z,82.08
2019-06-20T21:05:20.437Z,82.09
2019-06-20T21:07:52.308Z,82.21
2019-06-20T21:10:24.206Z,82.61
2019-06-20T21:12:55.917Z,82.66
2019-06-20T21:15:27.535Z,82.88
2019-06-20T21:17:59.213Z,83.11
2019-06-20T21:20:30.849Z,83.29
2019-06-20T21:23:02.491Z,83.35
2019-06-20T21:25:34.129Z,83.22
2019-06-20T21:28:05.706Z,83.72
2019-06-20T21:30:37.407Z,83.76
2019-06-20T21:33:08.971Z,83.74
2019-06-20T21:35:40.598Z,84.03
2019-06-20T21:38:12.236Z,84.11
2019-06-20T21:40:43.850Z,83.71
2019-06-20T21:43:15.452Z,83.73
2019-06-20T21:45:47.474Z,83.84
2019-06-20T21:48:19.059Z,83.96
2019-06-20T21:50:50.939Z,83.49
2019-06-20T21:53:22.531Z,84.11
2019-06-20T21:55:54.118Z,84.24
2019-06-20T21:58:25.768Z,84.47
2019-06-20T22:01:00.803Z,84.14
2019-06-20T22:03:34.176Z,84.46
2019-06-20T22:06:05.781Z,84.51
2019-06-20T22:08:37.523Z,84.17
2019-06-20T22:11:09.103Z,84.09
2019-06-20T22:13:43.127Z,84.08
2019-06-20T22:16:14.852Z,85.00
2019-06-20T22:18:46.456Z,84.92
2019-06-20T22:21:18.035Z,84.46
2019-06-20T22:23:49.626Z,84.81
2019-06-20T22:26:21.231Z,85.19
2019-06-20T22:28:52.864Z,85.29
2019-06-20T22:31:24.460Z,85.11
2019-06-20T22:33:56.121Z,84.63
2019-06-20T22:36:39.600Z,84.60
2019-06-20T22:39:01.015Z,84.35
2019-06-20T22:41:34.232Z,84.08
2019-06-20T22:44:05.790Z,84.13
2019-06-20T22:46:37.370Z,84.58
2019-06-20T22:49:08.977Z,84.58
2019-06-20T22:51:40.612Z,84.54
2019-06-20T22:54:12.224Z,84.57
2019-06-20T22:56:43.784Z,84.61
2019-06-20T22:59:15.359Z,84.98
2019-06-20T23:01:46.942Z,84.95
2019-06-20T23:04:18.518Z,84.62
2019-06-20T23:06:56.307Z,84.77
2019-06-20T23:09:24.278Z,84.87
2019-06-20T23:11:56.668Z,84.89
2019-06-20T23:14:28.258Z,84.98
2019-06-20T23:16:59.856Z,84.87
2019-06-20T23:19:31.486Z,84.93
2019-06-20T23:22:03.065Z,84.91
2019-06-20T23:24:34.623Z,85.05
2019-06-20T23:27:06.185Z,85.10
2019-06-20T23:29:37.738Z,85.12
2019-06-20T23:32:09.320Z,84.85
2019-06-20T23:34:40.952Z,85.14
2019-06-20T23:37:13.380Z,85.31
2019-06-20T23:39:45.039Z,85.46
2019-06-20T23:42:16.644Z,85.31
2019-06-20T23:44:48.340Z,85.34
2019-06-20T23:47:19.992Z,85.14
2019-06-20T23:49:51.662Z,85.28
2019-06-20T23:52:25.750Z,85.23
2019-06-20T23:54:57.410Z,85.44
2019-06-20T23:57:29.051Z,85.70
